sensor_id;sensor_type;location;lat;lon;timestamp;P1;durP1;ratioP1;P2;durP2;ratioP2
41039;SDS011;48586;50.122;18.972;2022-10-03T00:00:58;12.63;;;4.00;;
41039;SDS011;48586;50.122;18.972;2022-10-03T00:04:14;11.68;;;4.00;;
41039;SDS011;48586;50.122;18.972;2022-10-03T00:07:31;8.80;;;3.67;;
41039;SDS011;48586;50.122;18.972;2022-10-03T00:10:48;8.60;;;3.38;;
41039;SDS011;48586;50.122;18.972;2022-10-03T00:14:00;11.53;;;4.00;;
41039;SDS011;48586;50.122;18.972;2022-10-03T00:17:08;9.27;;;4.25;;
41039;SDS011;48586;50.122;18.972;2022-10-03T00:20:28;11.85;;;4.95;;
41039;SDS011;48586;50.122;18.972;2022-10-03T00:23:59;14.88;;;5.22;;
41039;SDS011;48586;50.122;18.972;2022-10-03T00:27:32;12.25;;;5.10;;
41039;SDS011;48586;50.122;18.972;2022-10-03T00:31:03;10.98;;;4.45;;
41039;SDS011;48586;50.122;18.972;2022-10-03T00:34:36;10.48;;;4.28;;
41039;SDS011;48586;50.122;18.972;2022-10-03T00:38:10;9.07;;;3.88;;
41039;SDS011;48586;50.122;18.972;2022-10-03T00:41:48;10.98;;;4.05;;
41039;SDS011;48586;50.122;18.972;2022-10-03T00:49:59;10.02;;;4.72;;
41039;SDS011;48586;50.122;18.972;2022-10-03T00:53:45;10.40;;;4.05;;
41039;SDS011;48586;50.122;18.972;2022-10-03T00:57:19;10.20;;;4.13;;
41039;SDS011;48586;50.122;18.972;2022-10-03T01:00:56;10.68;;;3.80;;
41039;SDS011;48586;50.122;18.972;2022-10-03T01:08:24;7.47;;;3.83;;
41039;SDS011;48586;50.122;18.972;2022-10-03T01:11:58;7.70;;;3.85;;
41039;SDS011;48586;50.122;18.972;2022-10-03T01:15:36;10.45;;;3.70;;
41039;SDS011;48586;50.122;18.972;2022-10-03T01:19:11;10.52;;;4.88;;
41039;SDS011;48586;50.122;18.972;2022-10-03T01:22:40;13.30;;;4.55;;
41039;SDS011;48586;50.122;18.972;2022-10-03T01:29:46;9.50;;;3.95;;
41039;SDS011;48586;50.122;18.972;2022-10-03T01:33:10;10.95;;;3.80;;
41039;SDS011;48586;50.122;18.972;2022-10-03T01:36:24;12.23;;;4.05;;
41039;SDS011;48586;50.122;18.972;2022-10-03T01:39:33;10.80;;;3.55;;
41039;SDS011;48586;50.122;18.972;2022-10-03T01:42:43;10.18;;;3.90;;
41039;SDS011;48586;50.122;18.972;2022-10-03T01:46:09;8.05;;;3.65;;
41039;SDS011;48586;50.122;18.972;2022-10-03T01:49:18;14.25;;;3.80;;
41039;SDS011;48586;50.122;18.972;2022-10-03T01:52:32;10.90;;;3.03;;
41039;SDS011;48586;50.122;18.972;2022-10-03T01:55:43;14.45;;;3.10;;
41039;SDS011;48586;50.122;18.972;2022-10-03T01:58:57;7.50;;;2.85;;
41039;SDS011;48586;50.122;18.972;2022-10-03T02:02:08;10.82;;;3.30;;
41039;SDS011;48586;50.122;18.972;2022-10-03T02:05:23;15.32;;;3.05;;
41039;SDS011;48586;50.122;18.972;2022-10-03T02:08:42;8.85;;;3.70;;
41039;SDS011;48586;50.122;18.972;2022-10-03T02:11:56;10.52;;;3.20;;
41039;SDS011;48586;50.122;18.972;2022-10-03T02:15:07;7.35;;;3.15;;
41039;SDS011;48586;50.122;18.972;2022-10-03T02:18:21;11.07;;;3.20;;
41039;SDS011;48586;50.122;18.972;2022-10-03T02:21:31;14.77;;;3.72;;
41039;SDS011;48586;50.122;18.972;2022-10-03T02:24:40;13.65;;;4.20;;
41039;SDS011;48586;50.122;18.972;2022-10-03T02:31:50;10.65;;;3.42;;
41039;SDS011;48586;50.122;18.972;2022-10-03T02:38:48;15.57;;;3.03;;
41039;SDS011;48586;50.122;18.972;2022-10-03T02:42:17;9.43;;;3.78;;
41039;SDS011;48586;50.122;18.972;2022-10-03T02:45:37;6.93;;;2.85;;
41039;SDS011;48586;50.122;18.972;2022-10-03T02:49:01;12.43;;;3.60;;
41039;SDS011;48586;50.122;18.972;2022-10-03T02:52:25;7.88;;;3.00;;
41039;SDS011;48586;50.122;18.972;2022-10-03T02:56:05;6.18;;;2.90;;
41039;SDS011;48586;50.122;18.972;2022-10-03T02:59:34;9.60;;;3.33;;
41039;SDS011;48586;50.122;18.972;2022-10-03T03:03:07;12.77;;;3.88;;
41039;SDS011;48586;50.122;18.972;2022-10-03T03:06:36;14.25;;;3.33;;
41039;SDS011;48586;50.122;18.972;2022-10-03T03:17:21;11.50;;;3.40;;
41039;SDS011;48586;50.122;18.972;2022-10-03T03:20:43;15.77;;;3.80;;
41039;SDS011;48586;50.122;18.972;2022-10-03T03:24:00;14.07;;;3.38;;
41039;SDS011;48586;50.122;18.972;2022-10-03T03:27:19;12.20;;;3.40;;
41039;SDS011;48586;50.122;18.972;2022-10-03T03:30:35;9.07;;;2.92;;
41039;SDS011;48586;50.122;18.972;2022-10-03T03:33:49;13.45;;;3.45;;
41039;SDS011;48586;50.122;18.972;2022-10-03T03:36:58;12.98;;;3.60;;
41039;SDS011;48586;50.122;18.972;2022-10-03T03:40:21;10.88;;;3.22;;
41039;SDS011;48586;50.122;18.972;2022-10-03T03:43:39;15.30;;;3.28;;
41039;SDS011;48586;50.122;18.972;2022-10-03T03:46:53;14.18;;;3.13;;
41039;SDS011;48586;50.122;18.972;2022-10-03T03:50:23;13.05;;;2.90;;
41039;SDS011;48586;50.122;18.972;2022-10-03T03:53:39;11.48;;;2.83;;
41039;SDS011;48586;50.122;18.972;2022-10-03T03:57:14;12.05;;;2.83;;
41039;SDS011;48586;50.122;18.972;2022-10-03T04:00:29;12.98;;;2.78;;
41039;SDS011;48586;50.122;18.972;2022-10-03T04:03:45;10.18;;;3.00;;
41039;SDS011;48586;50.122;18.972;2022-10-03T04:06:55;11.88;;;2.78;;
41039;SDS011;48586;50.122;18.972;2022-10-03T04:10:11;18.50;;;3.10;;
41039;SDS011;48586;50.122;18.972;2022-10-03T04:13:28;13.07;;;3.17;;
41039;SDS011;48586;50.122;18.972;2022-10-03T04:16:42;13.20;;;3.28;;
41039;SDS011;48586;50.122;18.972;2022-10-03T04:20:17;12.35;;;3.30;;
41039;SDS011;48586;50.122;18.972;2022-10-03T04:23:35;12.80;;;3.22;;
41039;SDS011;48586;50.122;18.972;2022-10-03T04:26:56;12.50;;;3.22;;
41039;SDS011;48586;50.122;18.972;2022-10-03T04:30:11;14.35;;;2.90;;
41039;SDS011;48586;50.122;18.972;2022-10-03T04:33:18;12.65;;;3.42;;
41039;SDS011;48586;50.122;18.972;2022-10-03T04:40:09;14.48;;;3.33;;
41039;SDS011;48586;50.122;18.972;2022-10-03T04:43:28;13.95;;;4.18;;
41039;SDS011;48586;50.122;18.972;2022-10-03T04:46:37;11.82;;;3.00;;
41039;SDS011;48586;50.122;18.972;2022-10-03T04:49:48;15.55;;;3.20;;
41039;SDS011;48586;50.122;18.972;2022-10-03T04:52:57;15.57;;;3.15;;
41039;SDS011;48586;50.122;18.972;2022-10-03T04:59:47;11.75;;;2.72;;
41039;SDS011;48586;50.122;18.972;2022-10-03T05:02:55;12.13;;;2.60;;
41039;SDS011;48586;50.122;18.972;2022-10-03T05:06:06;13.00;;;2.83;;
41039;SDS011;48586;50.122;18.972;2022-10-03T05:09:24;14.15;;;3.40;;
41039;SDS011;48586;50.122;18.972;2022-10-03T05:12:34;7.90;;;3.03;;
41039;SDS011;48586;50.122;18.972;2022-10-03T05:15:44;14.80;;;3.13;;
41039;SDS011;48586;50.122;18.972;2022-10-03T05:18:55;15.30;;;3.20;;
41039;SDS011;48586;50.122;18.972;2022-10-03T05:22:07;14.05;;;3.10;;
41039;SDS011;48586;50.122;18.972;2022-10-03T05:25:26;12.10;;;2.83;;
41039;SDS011;48586;50.122;18.972;2022-10-03T05:28:36;15.85;;;3.03;;
41039;SDS011;48586;50.122;18.972;2022-10-03T05:31:45;11.13;;;3.17;;
41039;SDS011;48586;50.122;18.972;2022-10-03T05:35:02;14.27;;;3.10;;
41039;SDS011;48586;50.122;18.972;2022-10-03T05:38:25;10.80;;;2.78;;
41039;SDS011;48586;50.122;18.972;2022-10-03T05:41:40;13.13;;;2.65;;
41039;SDS011;48586;50.122;18.972;2022-10-03T05:44:55;8.88;;;2.83;;
41039;SDS011;48586;50.122;18.972;2022-10-03T05:48:09;13.18;;;3.50;;
41039;SDS011;48586;50.122;18.972;2022-10-03T05:51:19;10.73;;;2.67;;
41039;SDS011;48586;50.122;18.972;2022-10-03T05:54:44;9.65;;;3.20;;
41039;SDS011;48586;50.122;18.972;2022-10-03T06:05:06;12.55;;;3.45;;
41039;SDS011;48586;50.122;18.972;2022-10-03T06:08:44;15.05;;;4.22;;
41039;SDS011;48586;50.122;18.972;2022-10-03T06:11:56;11.88;;;3.63;;
41039;SDS011;48586;50.122;18.972;2022-10-03T06:15:13;10.95;;;3.25;;
41039;SDS011;48586;50.122;18.972;2022-10-03T06:18:45;15.40;;;3.20;;
41039;SDS011;48586;50.122;18.972;2022-10-03T06:22:27;8.35;;;2.70;;
41039;SDS011;48586;50.122;18.972;2022-10-03T06:25:51;9.07;;;2.65;;
41039;SDS011;48586;50.122;18.972;2022-10-03T06:36:59;9.15;;;3.10;;
41039;SDS011;48586;50.122;18.972;2022-10-03T06:48:02;12.23;;;2.95;;
41039;SDS011;48586;50.122;18.972;2022-10-03T06:51:21;14.90;;;3.00;;
41039;SDS011;48586;50.122;18.972;2022-10-03T06:58:41;15.40;;;3.85;;
41039;SDS011;48586;50.122;18.972;2022-10-03T07:09:31;11.88;;;3.63;;
41039;SDS011;48586;50.122;18.972;2022-10-03T07:16:34;12.35;;;2.75;;
41039;SDS011;48586;50.122;18.972;2022-10-03T07:20:10;7.10;;;1.67;;
41039;SDS011;48586;50.122;18.972;2022-10-03T07:23:33;11.35;;;2.60;;
41039;SDS011;48586;50.122;18.972;2022-10-03T07:26:59;12.30;;;2.55;;
41039;SDS011;48586;50.122;18.972;2022-10-03T07:30:17;6.47;;;2.40;;
41039;SDS011;48586;50.122;18.972;2022-10-03T07:41:12;10.50;;;2.47;;
41039;SDS011;48586;50.122;18.972;2022-10-03T07:48:12;14.05;;;2.53;;
41039;SDS011;48586;50.122;18.972;2022-10-03T07:51:34;7.80;;;2.83;;
41039;SDS011;48586;50.122;18.972;2022-10-03T07:58:29;12.23;;;3.70;;
41039;SDS011;48586;50.122;18.972;2022-10-03T08:01:54;7.22;;;2.45;;
41039;SDS011;48586;50.122;18.972;2022-10-03T08:05:21;5.95;;;2.67;;
41039;SDS011;48586;50.122;18.972;2022-10-03T08:08:37;7.50;;;2.40;;
41039;SDS011;48586;50.122;18.972;2022-10-03T08:15:37;6.45;;;1.80;;
41039;SDS011;48586;50.122;18.972;2022-10-03T08:18:58;6.43;;;2.15;;
41039;SDS011;48586;50.122;18.972;2022-10-03T08:22:10;4.30;;;2.00;;
41039;SDS011;48586;50.122;18.972;2022-10-03T08:25:28;6.80;;;2.03;;
41039;SDS011;48586;50.122;18.972;2022-10-03T08:28:43;5.40;;;2.33;;
41039;SDS011;48586;50.122;18.972;2022-10-03T08:39:15;7.53;;;2.30;;
41039;SDS011;48586;50.122;18.972;2022-10-03T08:46:25;9.90;;;2.92;;
41039;SDS011;48586;50.122;18.972;2022-10-03T08:57:11;7.00;;;2.08;;
41039;SDS011;48586;50.122;18.972;2022-10-03T09:00:23;5.80;;;1.92;;
41039;SDS011;48586;50.122;18.972;2022-10-03T09:04:04;9.18;;;2.80;;
41039;SDS011;48586;50.122;18.972;2022-10-03T09:07:41;27.48;;;5.53;;
41039;SDS011;48586;50.122;18.972;2022-10-03T09:14:40;3.77;;;1.40;;
41039;SDS011;48586;50.122;18.972;2022-10-03T09:24:58;5.15;;;1.48;;
41039;SDS011;48586;50.122;18.972;2022-10-03T09:28:38;4.53;;;1.70;;
41039;SDS011;48586;50.122;18.972;2022-10-03T09:31:59;3.97;;;1.77;;
41039;SDS011;48586;50.122;18.972;2022-10-03T09:39:00;4.82;;;1.80;;
41039;SDS011;48586;50.122;18.972;2022-10-03T09:46:02;4.85;;;2.10;;
41039;SDS011;48586;50.122;18.972;2022-10-03T09:49:32;4.63;;;1.88;;
41039;SDS011;48586;50.122;18.972;2022-10-03T09:53:09;1.90;;;1.40;;
41039;SDS011;48586;50.122;18.972;2022-10-03T10:00:15;8.13;;;1.88;;
41039;SDS011;48586;50.122;18.972;2022-10-03T10:03:37;4.68;;;1.80;;
41039;SDS011;48586;50.122;18.972;2022-10-03T10:07:16;3.53;;;1.80;;
41039;SDS011;48586;50.122;18.972;2022-10-03T10:18:12;5.28;;;1.98;;
41039;SDS011;48586;50.122;18.972;2022-10-03T10:25:28;7.25;;;3.28;;
41039;SDS011;48586;50.122;18.972;2022-10-03T10:29:08;6.25;;;2.30;;
41039;SDS011;48586;50.122;18.972;2022-10-03T10:36:09;3.40;;;1.60;;
41039;SDS011;48586;50.122;18.972;2022-10-03T10:39:49;5.18;;;2.10;;
41039;SDS011;48586;50.122;18.972;2022-10-03T10:43:28;3.28;;;1.70;;
41039;SDS011;48586;50.122;18.972;2022-10-03T11:05:15;5.68;;;1.55;;
41039;SDS011;48586;50.122;18.972;2022-10-03T11:16:30;6.88;;;1.98;;
41039;SDS011;48586;50.122;18.972;2022-10-03T11:24:21;7.38;;;1.83;;
41039;SDS011;48586;50.122;18.972;2022-10-03T11:38:33;4.65;;;1.75;;
41039;SDS011;48586;50.122;18.972;2022-10-03T11:41:45;5.38;;;1.83;;
41039;SDS011;48586;50.122;18.972;2022-10-03T11:44:54;5.30;;;1.67;;
41039;SDS011;48586;50.122;18.972;2022-10-03T11:48:09;3.58;;;1.50;;
41039;SDS011;48586;50.122;18.972;2022-10-03T11:51:34;6.22;;;1.83;;
41039;SDS011;48586;50.122;18.972;2022-10-03T11:54:41;4.82;;;1.60;;
41039;SDS011;48586;50.122;18.972;2022-10-03T11:57:48;3.83;;;1.70;;
41039;SDS011;48586;50.122;18.972;2022-10-03T12:01:03;4.28;;;2.22;;
41039;SDS011;48586;50.122;18.972;2022-10-03T12:04:23;4.90;;;1.50;;
41039;SDS011;48586;50.122;18.972;2022-10-03T12:07:38;6.35;;;1.85;;
41039;SDS011;48586;50.122;18.972;2022-10-03T12:11:05;6.55;;;2.17;;
41039;SDS011;48586;50.122;18.972;2022-10-03T12:14:18;8.77;;;4.18;;
41039;SDS011;48586;50.122;18.972;2022-10-03T12:17:29;4.60;;;1.90;;
41039;SDS011;48586;50.122;18.972;2022-10-03T12:20:50;5.13;;;2.13;;
41039;SDS011;48586;50.122;18.972;2022-10-03T12:27:38;7.32;;;2.53;;
41039;SDS011;48586;50.122;18.972;2022-10-03T12:30:48;5.95;;;1.92;;
41039;SDS011;48586;50.122;18.972;2022-10-03T12:33:56;3.50;;;1.88;;
41039;SDS011;48586;50.122;18.972;2022-10-03T12:37:22;9.38;;;2.47;;
41039;SDS011;48586;50.122;18.972;2022-10-03T12:40:40;5.93;;;2.60;;
41039;SDS011;48586;50.122;18.972;2022-10-03T12:43:59;4.88;;;2.08;;
41039;SDS011;48586;50.122;18.972;2022-10-03T12:47:20;10.85;;;3.40;;
41039;SDS011;48586;50.122;18.972;2022-10-03T12:50:37;9.25;;;2.20;;
41039;SDS011;48586;50.122;18.972;2022-10-03T12:53:56;7.93;;;2.60;;
41039;SDS011;48586;50.122;18.972;2022-10-03T12:57:36;15.75;;;7.13;;
41039;SDS011;48586;50.122;18.972;2022-10-03T13:00:53;3.63;;;1.98;;
41039;SDS011;48586;50.122;18.972;2022-10-03T13:04:12;10.02;;;2.10;;
41039;SDS011;48586;50.122;18.972;2022-10-03T13:07:25;5.07;;;2.25;;
41039;SDS011;48586;50.122;18.972;2022-10-03T13:10:31;7.25;;;2.25;;
41039;SDS011;48586;50.122;18.972;2022-10-03T13:13:47;5.38;;;2.20;;
41039;SDS011;48586;50.122;18.972;2022-10-03T13:17:09;7.15;;;2.00;;
41039;SDS011;48586;50.122;18.972;2022-10-03T13:20:24;5.72;;;2.13;;
41039;SDS011;48586;50.122;18.972;2022-10-03T13:23:32;7.95;;;1.95;;
41039;SDS011;48586;50.122;18.972;2022-10-03T13:26:47;13.07;;;4.47;;
41039;SDS011;48586;50.122;18.972;2022-10-03T13:30:11;5.43;;;2.20;;
41039;SDS011;48586;50.122;18.972;2022-10-03T13:33:32;7.10;;;2.40;;
41039;SDS011;48586;50.122;18.972;2022-10-03T13:36:49;5.95;;;2.92;;
41039;SDS011;48586;50.122;18.972;2022-10-03T13:40:06;7.00;;;2.33;;
41039;SDS011;48586;50.122;18.972;2022-10-03T13:43:15;5.85;;;2.30;;
41039;SDS011;48586;50.122;18.972;2022-10-03T13:46:25;6.78;;;2.30;;
41039;SDS011;48586;50.122;18.972;2022-10-03T13:53:10;6.95;;;2.70;;
41039;SDS011;48586;50.122;18.972;2022-10-03T13:56:23;6.93;;;2.80;;
41039;SDS011;48586;50.122;18.972;2022-10-03T13:59:42;7.93;;;3.00;;
41039;SDS011;48586;50.122;18.972;2022-10-03T14:06:26;5.10;;;2.38;;
41039;SDS011;48586;50.122;18.972;2022-10-03T14:09:37;6.53;;;2.50;;
41039;SDS011;48586;50.122;18.972;2022-10-03T14:12:52;10.13;;;3.55;;
41039;SDS011;48586;50.122;18.972;2022-10-03T14:16:10;8.98;;;3.83;;
41039;SDS011;48586;50.122;18.972;2022-10-03T14:19:24;12.48;;;3.67;;
41039;SDS011;48586;50.122;18.972;2022-10-03T14:26:12;7.18;;;3.25;;
41039;SDS011;48586;50.122;18.972;2022-10-03T14:29:22;9.05;;;3.45;;
41039;SDS011;48586;50.122;18.972;2022-10-03T14:32:33;9.82;;;4.22;;
41039;SDS011;48586;50.122;18.972;2022-10-03T14:35:49;11.05;;;4.15;;
41039;SDS011;48586;50.122;18.972;2022-10-03T14:39:07;10.13;;;3.38;;
41039;SDS011;48586;50.122;18.972;2022-10-03T14:45:51;7.70;;;3.60;;
41039;SDS011;48586;50.122;18.972;2022-10-03T14:49:02;9.43;;;3.03;;
41039;SDS011;48586;50.122;18.972;2022-10-03T14:52:18;10.27;;;3.60;;
41039;SDS011;48586;50.122;18.972;2022-10-03T14:55:37;9.45;;;3.13;;
41039;SDS011;48586;50.122;18.972;2022-10-03T14:58:45;11.15;;;3.33;;
41039;SDS011;48586;50.122;18.972;2022-10-03T15:08:38;14.52;;;3.78;;
41039;SDS011;48586;50.122;18.972;2022-10-03T15:11:47;10.52;;;4.75;;
41039;SDS011;48586;50.122;18.972;2022-10-03T15:15:02;9.38;;;3.45;;
41039;SDS011;48586;50.122;18.972;2022-10-03T15:18:13;9.77;;;3.88;;
41039;SDS011;48586;50.122;18.972;2022-10-03T15:21:20;7.15;;;3.13;;
41039;SDS011;48586;50.122;18.972;2022-10-03T15:24:30;7.65;;;2.47;;
41039;SDS011;48586;50.122;18.972;2022-10-03T15:27:47;4.63;;;2.13;;
41039;SDS011;48586;50.122;18.972;2022-10-03T15:30:54;7.85;;;2.58;;
41039;SDS011;48586;50.122;18.972;2022-10-03T15:34:13;10.25;;;2.55;;
41039;SDS011;48586;50.122;18.972;2022-10-03T15:37:20;8.13;;;2.75;;
41039;SDS011;48586;50.122;18.972;2022-10-03T15:40:31;5.28;;;2.53;;
41039;SDS011;48586;50.122;18.972;2022-10-03T15:43:42;5.20;;;2.80;;
41039;SDS011;48586;50.122;18.972;2022-10-03T15:46:51;7.18;;;3.67;;
41039;SDS011;48586;50.122;18.972;2022-10-03T15:50:02;6.38;;;2.80;;
41039;SDS011;48586;50.122;18.972;2022-10-03T15:53:11;5.43;;;2.47;;
41039;SDS011;48586;50.122;18.972;2022-10-03T15:56:24;12.55;;;2.80;;
41039;SDS011;48586;50.122;18.972;2022-10-03T16:02:59;5.33;;;2.83;;
41039;SDS011;48586;50.122;18.972;2022-10-03T16:06:16;5.35;;;2.13;;
41039;SDS011;48586;50.122;18.972;2022-10-03T16:09:37;7.57;;;3.25;;
41039;SDS011;48586;50.122;18.972;2022-10-03T16:12:54;3.83;;;2.22;;
41039;SDS011;48586;50.122;18.972;2022-10-03T16:16:13;7.47;;;3.15;;
41039;SDS011;48586;50.122;18.972;2022-10-03T16:19:26;8.90;;;4.18;;
41039;SDS011;48586;50.122;18.972;2022-10-03T16:22:37;8.85;;;4.03;;
41039;SDS011;48586;50.122;18.972;2022-10-03T16:25:53;10.05;;;3.22;;
41039;SDS011;48586;50.122;18.972;2022-10-03T16:29:00;16.73;;;6.28;;
41039;SDS011;48586;50.122;18.972;2022-10-03T16:32:14;8.10;;;3.97;;
41039;SDS011;48586;50.122;18.972;2022-10-03T16:35:29;9.27;;;3.28;;
41039;SDS011;48586;50.122;18.972;2022-10-03T16:38:37;5.28;;;2.88;;
41039;SDS011;48586;50.122;18.972;2022-10-03T16:41:43;9.43;;;4.75;;
41039;SDS011;48586;50.122;18.972;2022-10-03T16:44:47;10.18;;;5.00;;
41039;SDS011;48586;50.122;18.972;2022-10-03T16:47:55;7.60;;;4.15;;
41039;SDS011;48586;50.122;18.972;2022-10-03T16:54:21;7.45;;;3.78;;
41039;SDS011;48586;50.122;18.972;2022-10-03T16:57:25;12.32;;;4.32;;
41039;SDS011;48586;50.122;18.972;2022-10-03T17:00:33;14.57;;;7.00;;
41039;SDS011;48586;50.122;18.972;2022-10-03T17:03:44;9.18;;;3.65;;
41039;SDS011;48586;50.122;18.972;2022-10-03T17:06:48;13.10;;;5.75;;
41039;SDS011;48586;50.122;18.972;2022-10-03T17:09:52;9.40;;;3.50;;
41039;SDS011;48586;50.122;18.972;2022-10-03T17:12:56;8.93;;;3.75;;
41039;SDS011;48586;50.122;18.972;2022-10-03T17:19:14;8.82;;;3.45;;
41039;SDS011;48586;50.122;18.972;2022-10-03T17:22:23;6.88;;;3.80;;
41039;SDS011;48586;50.122;18.972;2022-10-03T17:25:33;10.52;;;3.83;;
41039;SDS011;48586;50.122;18.972;2022-10-03T17:28:42;11.25;;;3.90;;
41039;SDS011;48586;50.122;18.972;2022-10-03T17:31:51;12.45;;;3.80;;
41039;SDS011;48586;50.122;18.972;2022-10-03T17:35:02;14.38;;;3.72;;
41039;SDS011;48586;50.122;18.972;2022-10-03T17:38:12;7.70;;;3.40;;
41039;SDS011;48586;50.122;18.972;2022-10-03T17:41:30;9.82;;;4.03;;
41039;SDS011;48586;50.122;18.972;2022-10-03T17:44:40;11.38;;;4.10;;
41039;SDS011;48586;50.122;18.972;2022-10-03T17:48:03;11.50;;;4.20;;
41039;SDS011;48586;50.122;18.972;2022-10-03T17:51:24;15.70;;;5.20;;
41039;SDS011;48586;50.122;18.972;2022-10-03T17:54:31;16.25;;;5.60;;
41039;SDS011;48586;50.122;18.972;2022-10-03T17:57:39;15.15;;;6.75;;
41039;SDS011;48586;50.122;18.972;2022-10-03T18:00:58;17.95;;;5.95;;
41039;SDS011;48586;50.122;18.972;2022-10-03T18:04:10;17.40;;;6.32;;
41039;SDS011;48586;50.122;18.972;2022-10-03T18:07:20;12.05;;;5.40;;
41039;SDS011;48586;50.122;18.972;2022-10-03T18:10:25;25.25;;;11.57;;
41039;SDS011;48586;50.122;18.972;2022-10-03T18:13:34;12.32;;;5.18;;
41039;SDS011;48586;50.122;18.972;2022-10-03T18:16:41;16.27;;;5.68;;
41039;SDS011;48586;50.122;18.972;2022-10-03T18:19:49;14.77;;;5.00;;
41039;SDS011;48586;50.122;18.972;2022-10-03T18:23:04;16.75;;;6.63;;
41039;SDS011;48586;50.122;18.972;2022-10-03T18:26:11;12.73;;;4.13;;
41039;SDS011;48586;50.122;18.972;2022-10-03T18:29:23;11.52;;;5.38;;
41039;SDS011;48586;50.122;18.972;2022-10-03T18:32:32;11.80;;;4.13;;
41039;SDS011;48586;50.122;18.972;2022-10-03T18:35:39;7.40;;;3.58;;
41039;SDS011;48586;50.122;18.972;2022-10-03T18:38:45;16.08;;;3.92;;
41039;SDS011;48586;50.122;18.972;2022-10-03T18:44:52;12.38;;;4.97;;
41039;SDS011;48586;50.122;18.972;2022-10-03T18:47:58;17.05;;;4.90;;
41039;SDS011;48586;50.122;18.972;2022-10-03T18:51:11;13.48;;;3.85;;
41039;SDS011;48586;50.122;18.972;2022-10-03T18:54:22;13.80;;;4.20;;
41039;SDS011;48586;50.122;18.972;2022-10-03T18:57:35;14.55;;;5.13;;
41039;SDS011;48586;50.122;18.972;2022-10-03T19:00:44;11.05;;;4.35;;
41039;SDS011;48586;50.122;18.972;2022-10-03T19:03:53;11.65;;;4.40;;
41039;SDS011;48586;50.122;18.972;2022-10-03T19:07:00;11.27;;;3.95;;
41039;SDS011;48586;50.122;18.972;2022-10-03T19:10:16;13.27;;;5.55;;
41039;SDS011;48586;50.122;18.972;2022-10-03T19:13:38;16.60;;;5.15;;
41039;SDS011;48586;50.122;18.972;2022-10-03T19:16:56;14.77;;;5.32;;
41039;SDS011;48586;50.122;18.972;2022-10-03T19:20:16;16.23;;;5.30;;
41039;SDS011;48586;50.122;18.972;2022-10-03T19:23:24;21.13;;;7.70;;
41039;SDS011;48586;50.122;18.972;2022-10-03T19:26:32;22.13;;;5.38;;
41039;SDS011;48586;50.122;18.972;2022-10-03T19:29:37;13.02;;;4.68;;
41039;SDS011;48586;50.122;18.972;2022-10-03T19:32:45;15.95;;;4.60;;
41039;SDS011;48586;50.122;18.972;2022-10-03T19:35:50;12.45;;;4.03;;
41039;SDS011;48586;50.122;18.972;2022-10-03T19:38:58;15.60;;;4.28;;
41039;SDS011;48586;50.122;18.972;2022-10-03T19:42:11;16.50;;;4.38;;
41039;SDS011;48586;50.122;18.972;2022-10-03T19:45:22;16.38;;;4.10;;
41039;SDS011;48586;50.122;18.972;2022-10-03T19:48:24;14.48;;;4.40;;
41039;SDS011;48586;50.122;18.972;2022-10-03T19:51:29;19.50;;;4.80;;
41039;SDS011;48586;50.122;18.972;2022-10-03T19:54:32;15.95;;;4.38;;
41039;SDS011;48586;50.122;18.972;2022-10-03T19:57:46;17.85;;;4.75;;
41039;SDS011;48586;50.122;18.972;2022-10-03T20:00:53;14.90;;;4.22;;
41039;SDS011;48586;50.122;18.972;2022-10-03T20:03:57;19.83;;;4.82;;
41039;SDS011;48586;50.122;18.972;2022-10-03T20:07:01;19.23;;;4.25;;
41039;SDS011;48586;50.122;18.972;2022-10-03T20:10:11;17.50;;;5.05;;
41039;SDS011;48586;50.122;18.972;2022-10-03T20:13:25;16.48;;;4.80;;
41039;SDS011;48586;50.122;18.972;2022-10-03T20:16:28;19.65;;;4.45;;
41039;SDS011;48586;50.122;18.972;2022-10-03T20:19:40;19.27;;;4.55;;
41039;SDS011;48586;50.122;18.972;2022-10-03T20:22:53;22.58;;;4.30;;
41039;SDS011;48586;50.122;18.972;2022-10-03T20:26:03;17.15;;;4.28;;
41039;SDS011;48586;50.122;18.972;2022-10-03T20:29:15;17.92;;;4.82;;
41039;SDS011;48586;50.122;18.972;2022-10-03T20:32:23;20.92;;;4.07;;
41039;SDS011;48586;50.122;18.972;2022-10-03T20:35:26;19.13;;;4.63;;
41039;SDS011;48586;50.122;18.972;2022-10-03T20:38:38;17.27;;;4.78;;
41039;SDS011;48586;50.122;18.972;2022-10-03T20:41:56;11.80;;;4.07;;
41039;SDS011;48586;50.122;18.972;2022-10-03T20:45:02;20.92;;;4.75;;
41039;SDS011;48586;50.122;18.972;2022-10-03T20:48:15;20.83;;;4.70;;
41039;SDS011;48586;50.122;18.972;2022-10-03T20:51:24;16.67;;;4.63;;
41039;SDS011;48586;50.122;18.972;2022-10-03T20:54:45;21.17;;;5.03;;
41039;SDS011;48586;50.122;18.972;2022-10-03T20:57:51;20.40;;;5.20;;
41039;SDS011;48586;50.122;18.972;2022-10-03T21:01:03;21.17;;;5.35;;
41039;SDS011;48586;50.122;18.972;2022-10-03T21:04:10;25.55;;;6.53;;
41039;SDS011;48586;50.122;18.972;2022-10-03T21:07:31;24.02;;;7.30;;
41039;SDS011;48586;50.122;18.972;2022-10-03T21:10:38;26.90;;;7.10;;
41039;SDS011;48586;50.122;18.972;2022-10-03T21:13:45;25.25;;;7.45;;
41039;SDS011;48586;50.122;18.972;2022-10-03T21:16:53;21.85;;;6.70;;
41039;SDS011;48586;50.122;18.972;2022-10-03T21:19:56;26.00;;;6.65;;
41039;SDS011;48586;50.122;18.972;2022-10-03T21:23:08;21.20;;;6.53;;
41039;SDS011;48586;50.122;18.972;2022-10-03T21:26:18;18.35;;;5.80;;
41039;SDS011;48586;50.122;18.972;2022-10-03T21:29:26;23.88;;;6.03;;
41039;SDS011;48586;50.122;18.972;2022-10-03T21:32:42;19.48;;;5.80;;
41039;SDS011;48586;50.122;18.972;2022-10-03T21:35:54;23.27;;;5.82;;
41039;SDS011;48586;50.122;18.972;2022-10-03T21:39:12;20.90;;;5.30;;
41039;SDS011;48586;50.122;18.972;2022-10-03T21:42:19;12.85;;;4.38;;
41039;SDS011;48586;50.122;18.972;2022-10-03T21:45:27;17.73;;;4.63;;
41039;SDS011;48586;50.122;18.972;2022-10-03T21:48:43;15.05;;;4.90;;
41039;SDS011;48586;50.122;18.972;2022-10-03T21:52:10;18.98;;;5.05;;
41039;SDS011;48586;50.122;18.972;2022-10-03T21:55:31;19.95;;;5.32;;
41039;SDS011;48586;50.122;18.972;2022-10-03T21:58:49;22.40;;;4.72;;
41039;SDS011;48586;50.122;18.972;2022-10-03T22:02:05;16.10;;;4.55;;
41039;SDS011;48586;50.122;18.972;2022-10-03T22:05:20;17.58;;;4.80;;
41039;SDS011;48586;50.122;18.972;2022-10-03T22:08:28;15.73;;;4.65;;
41039;SDS011;48586;50.122;18.972;2022-10-03T22:11:35;19.52;;;5.10;;
41039;SDS011;48586;50.122;18.972;2022-10-03T22:14:43;13.35;;;5.15;;
41039;SDS011;48586;50.122;18.972;2022-10-03T22:17:54;16.05;;;5.47;;
41039;SDS011;48586;50.122;18.972;2022-10-03T22:21:02;21.30;;;5.45;;
41039;SDS011;48586;50.122;18.972;2022-10-03T22:24:15;18.73;;;5.97;;
41039;SDS011;48586;50.122;18.972;2022-10-03T22:27:23;18.52;;;5.68;;
41039;SDS011;48586;50.122;18.972;2022-10-03T22:30:31;18.00;;;5.82;;
41039;SDS011;48586;50.122;18.972;2022-10-03T22:33:42;18.52;;;5.57;;
41039;SDS011;48586;50.122;18.972;2022-10-03T22:36:56;23.67;;;6.32;;
41039;SDS011;48586;50.122;18.972;2022-10-03T22:39:59;21.70;;;6.13;;
41039;SDS011;48586;50.122;18.972;2022-10-03T22:43:03;24.15;;;6.82;;
41039;SDS011;48586;50.122;18.972;2022-10-03T22:46:07;24.45;;;6.78;;
41039;SDS011;48586;50.122;18.972;2022-10-03T22:49:18;18.60;;;7.00;;
41039;SDS011;48586;50.122;18.972;2022-10-03T22:52:24;19.48;;;6.18;;
41039;SDS011;48586;50.122;18.972;2022-10-03T22:55:29;16.10;;;6.15;;